Time;durP1;ratioP1;P1;durP2;ratioP2;P2;SDS_P1;SDS_P2;PMS_P1;PMS_P2;Temp;Humidity;BMP_temperature;BMP_pressure;BME280_temperature;BME280_humidity;BME280_pressure;Samples;Min_cycle;Max_cycle;Signal;HPM_P1;HPM_P2
2023/09/26 00:01:01;;;;;;;5.43;2.00;;;23.60;56.80;;;;;;6069614;23;87529;-86
2023/09/26 00:03:27;;;;;;;2.95;1.70;;;23.60;56.90;;;;;;6066580;23;89041;-84
2023/09/26 00:05:55;;;;;;;2.28;1.25;;;23.60;56.90;;;;;;6066099;23;86355;-84
2023/09/26 00:08:20;;;;;;;2.63;1.60;;;23.60;56.80;;;;;;6066117;23;86542;-86
2023/09/26 00:10:46;;;;;;;2.58;1.50;;;23.60;56.90;;;;;;6068327;23;86851;-85
2023/09/26 00:13:15;;;;;;;2.63;1.42;;;23.60;56.80;;;;;;6065931;23;87004;-84
2023/09/26 00:15:41;;;;;;;2.47;1.38;;;23.50;56.70;;;;;;6068277;23;85970;-84
2023/09/26 00:18:07;;;;;;;2.00;1.50;;;23.50;56.90;;;;;;6068839;23;85806;-85
2023/09/26 00:20:50;;;;;;;1.90;1.67;;;23.50;56.80;;;;;;6065793;23;86423;-87
2023/09/26 00:23:16;;;;;;;2.28;1.40;;;23.50;56.90;;;;;;6064842;23;88303;-86
2023/09/26 00:25:44;;;;;;;2.72;1.60;;;23.50;56.80;;;;;;6068649;23;88141;-86
2023/09/26 00:28:10;;;;;;;2.72;1.85;;;23.50;57.00;;;;;;6067936;23;86237;-83
2023/09/26 00:30:36;;;;;;;2.67;1.40;;;23.50;57.10;;;;;;6067430;23;89415;-84
2023/09/26 00:33:01;;;;;;;2.97;1.40;;;23.50;57.00;;;;;;6069713;23;86964;-85
2023/09/26 00:35:27;;;;;;;3.53;1.30;;;23.50;56.90;;;;;;6068767;23;86047;-84
2023/09/26 00:37:53;;;;;;;2.20;1.40;;;23.40;56.90;;;;;;6069223;23;85502;-84
2023/09/26 00:40:22;;;;;;;2.40;1.58;;;23.40;56.90;;;;;;6065155;23;87719;-85
2023/09/26 00:42:49;;;;;;;1.70;1.35;;;23.40;56.90;;;;;;6064119;23;91796;-84
2023/09/26 00:45:15;;;;;;;2.22;1.40;;;23.40;56.90;;;;;;6063666;23;86094;-85
2023/09/26 00:47:41;;;;;;;2.10;1.40;;;23.40;56.80;;;;;;6066980;23;89141;-86
2023/09/26 00:50:14;;;;;;;2.97;1.45;;;23.40;56.90;;;;;;6066443;23;86995;-83
2023/09/26 00:52:42;;;;;;;2.75;1.73;;;23.40;56.80;;;;;;6065739;23;86515;-83
2023/09/26 00:55:09;;;;;;;1.80;1.38;;;23.40;56.90;;;;;;6066352;23;86176;-89
2023/09/26 00:57:37;;;;;;;2.65;1.55;;;23.40;56.90;;;;;;6064291;23;85549;-85
2023/09/26 01:00:04;;;;;;;2.38;1.40;;;23.40;57.00;;;;;;6066137;23;87672;-85
2023/09/26 01:02:30;;;;;;;2.20;1.40;;;23.40;57.00;;;;;;6065696;23;86275;-84
2023/09/26 01:04:59;;;;;;;3.17;1.50;;;23.40;57.00;;;;;;6066358;23;86041;-84
2023/09/26 01:07:26;;;;;;;5.68;1.60;;;23.30;57.10;;;;;;6066268;23;85910;-84
2023/09/26 01:09:52;;;;;;;1.10;1.00;;;23.30;57.10;;;;;;6066855;23;90039;-89
2023/09/26 01:12:21;;;;;;;1.70;1.30;;;23.30;57.00;;;;;;6065089;23;87799;-84
2023/09/26 01:14:47;;;;;;;1.55;1.30;;;23.30;57.10;;;;;;6065379;23;86155;-83
2023/09/26 01:17:13;;;;;;;2.30;1.40;;;23.30;57.00;;;;;;6066117;23;86244;-86
2023/09/26 01:19:38;;;;;;;1.60;1.38;;;23.30;57.00;;;;;;6064418;23;87355;-85
2023/09/26 01:22:04;;;;;;;2.20;1.60;;;23.30;57.00;;;;;;6067224;23;86466;-85
2023/09/26 01:24:30;;;;;;;1.95;1.20;;;23.30;57.10;;;;;;6064658;23;86399;-86
2023/09/26 01:26:56;;;;;;;1.73;1.40;;;23.30;57.20;;;;;;6036391;23;86325;-85
2023/09/26 01:29:21;;;;;;;2.10;1.55;;;23.30;57.10;;;;;;6036997;23;87403;-84
2023/09/26 01:31:47;;;;;;;3.13;1.58;;;23.30;57.20;;;;;;6037005;23;87304;-84
2023/09/26 01:34:13;;;;;;;2.35;1.70;;;23.30;57.20;;;;;;6035066;23;86502;-88
2023/09/26 01:36:38;;;;;;;4.05;1.30;;;23.20;57.20;;;;;;6061123;23;86267;-84
2023/09/26 01:39:05;;;;;;;1.55;1.25;;;23.20;57.10;;;;;;6036385;23;90321;-85
2023/09/26 01:41:31;;;;;;;1.85;1.20;;;23.20;57.20;;;;;;6035480;23;87880;-85
2023/09/26 01:43:57;;;;;;;2.33;1.45;;;23.20;57.20;;;;;;6036246;23;86257;-88
2023/09/26 01:46:25;;;;;;;2.10;1.45;;;23.20;57.20;;;;;;6037798;23;85980;-85
2023/09/26 01:48:51;;;;;;;1.67;1.40;;;23.20;57.20;;;;;;6061054;23;88834;-84
2023/09/26 01:51:17;;;;;;;3.05;1.30;;;23.20;57.30;;;;;;6037267;23;86150;-85
2023/09/26 01:53:42;;;;;;;1.70;1.13;;;23.20;57.20;;;;;;6060118;23;86403;-85
2023/09/26 01:56:08;;;;;;;1.42;1.20;;;23.20;57.30;;;;;;6038193;23;85951;-88
2023/09/26 01:58:34;;;;;;;1.85;1.35;;;23.20;57.10;;;;;;6039343;23;85908;-84
2023/09/26 02:00:59;;;;;;;2.38;1.33;;;23.20;57.30;;;;;;6037397;23;89946;-84
2023/09/26 02:03:25;;;;;;;1.73;1.40;;;23.20;57.10;;;;;;6039008;23;86265;-88
2023/09/26 02:05:58;;;;;;;1.88;1.30;;;23.20;57.30;;;;;;6027779;23;86501;-84
2023/09/26 02:08:24;;;;;;;1.30;1.20;;;23.20;57.20;;;;;;6060373;23;89846;-85
2023/09/26 02:10:52;;;;;;;2.05;1.60;;;23.20;57.30;;;;;;6038047;23;86416;-84
2023/09/26 02:13:18;;;;;;;1.47;1.20;;;23.20;57.20;;;;;;6038501;23;86333;-85
2023/09/26 02:15:43;;;;;;;1.90;1.30;;;23.20;57.40;;;;;;6062563;23;86196;-86
2023/09/26 02:18:09;;;;;;;2.40;1.60;;;23.10;57.20;;;;;;6039286;23;87494;-87
2023/09/26 02:20:35;;;;;;;2.55;1.60;;;23.20;57.20;;;;;;6039013;23;86332;-86
2023/09/26 02:23:01;;;;;;;1.98;1.30;;;23.10;57.30;;;;;;6040195;23;86441;-84
2023/09/26 02:25:27;;;;;;;1.85;1.25;;;23.10;57.20;;;;;;6039125;23;85887;-87
2023/09/26 02:27:53;;;;;;;1.88;1.15;;;23.10;57.10;;;;;;6038188;23;87804;-84
2023/09/26 02:30:21;;;;;;;1.65;1.33;;;23.10;57.40;;;;;;6061237;23;88142;-84
2023/09/26 02:32:47;;;;;;;1.73;1.40;;;23.10;57.20;;;;;;6040093;23;86144;-84
2023/09/26 02:35:14;;;;;;;2.22;1.48;;;23.10;57.20;;;;;;6040971;23;85816;-87
2023/09/26 02:37:40;;;;;;;1.30;1.20;;;23.10;57.40;;;;;;6062288;23;87365;-84
2023/09/26 02:40:13;;;;;;;1.50;1.35;;;23.10;57.30;;;;;;6042095;23;85895;-84
2023/09/26 02:42:46;;;;;;;2.30;1.48;;;23.00;57.10;;;;;;6063181;23;87505;-88
2023/09/26 02:45:15;;;;;;;1.50;1.13;;;23.10;57.30;;;;;;6040606;23;85540;-84
2023/09/26 02:47:41;;;;;;;;;;;23.10;57.40;;;;;;6040619;23;86881;-84
2023/09/26 02:50:07;;;;;;;2.25;1.38;;;23.10;57.20;;;;;;6041326;23;86546;-84
2023/09/26 02:52:34;;;;;;;1.65;1.17;;;23.10;57.10;;;;;;6038245;23;86059;-84
2023/09/26 02:55:01;;;;;;;1.40;1.10;;;23.10;57.30;;;;;;6039333;23;85645;-86
2023/09/26 02:57:27;;;;;;;1.63;1.20;;;23.00;57.30;;;;;;6040073;23;86894;-89
2023/09/26 02:59:53;;;;;;;1.85;1.20;;;23.10;57.30;;;;;;6061904;23;89347;-89
2023/09/26 03:02:18;;;;;;;2.15;1.55;;;23.00;57.40;;;;;;6040524;23;85901;-85
2023/09/26 03:04:48;;;;;;;2.00;1.33;;;23.00;57.40;;;;;;6040580;23;85778;-84
2023/09/26 03:07:15;;;;;;;3.33;1.30;;;23.00;57.30;;;;;;6040248;23;87345;-89
2023/09/26 03:09:40;;;;;;;2.08;1.70;;;23.10;57.40;;;;;;6041074;23;86732;-84
2023/09/26 03:12:06;;;;;;;1.60;1.30;;;23.00;57.30;;;;;;6062376;23;85952;-86
2023/09/26 03:14:32;;;;;;;2.03;1.55;;;23.00;57.40;;;;;;6039654;23;86185;-85
2023/09/26 03:16:59;;;;;;;1.58;1.15;;;23.00;57.40;;;;;;6040603;23;87879;-85
2023/09/26 03:19:24;;;;;;;1.70;1.13;;;23.00;57.30;;;;;;6039458;23;86140;-85
2023/09/26 03:21:50;;;;;;;1.50;1.10;;;23.00;57.30;;;;;;6041344;23;85538;-84
2023/09/26 03:24:17;;;;;;;1.48;1.38;;;23.00;57.30;;;;;;6040305;23;86181;-84
2023/09/26 03:26:42;;;;;;;1.60;1.23;;;23.00;57.30;;;;;;6040283;23;87237;-87
2023/09/26 03:29:08;;;;;;;2.47;1.52;;;23.00;57.40;;;;;;6040452;23;86628;-84
2023/09/26 03:31:34;;;;;;;1.70;1.35;;;23.00;57.50;;;;;;6063186;23;86361;-86
2023/09/26 03:34:00;;;;;;;1.58;1.20;;;23.00;57.40;;;;;;6039342;23;85902;-84
2023/09/26 03:36:26;;;;;;;1.73;1.23;;;23.00;57.30;;;;;;6039100;23;87068;-86
2023/09/26 03:38:52;;;;;;;3.35;1.20;;;23.00;57.30;;;;;;6040412;23;86749;-86
2023/09/26 03:41:17;;;;;;;1.58;1.20;;;23.00;57.60;;;;;;6039889;23;85843;-86
2023/09/26 03:43:43;;;;;;;2.00;1.27;;;23.00;57.40;;;;;;6061794;23;86018;-85
2023/09/26 03:46:09;;;;;;;1.40;1.30;;;23.00;57.30;;;;;;6063340;23;89319;-84
2023/09/26 03:48:36;;;;;;;1.25;1.05;;;23.00;57.40;;;;;;6061336;23;90816;-86
2023/09/26 03:51:09;;;;;;;1.80;1.15;;;22.90;57.30;;;;;;6039385;23;86374;-87
2023/09/26 03:53:36;;;;;;;1.23;1.10;;;23.00;57.50;;;;;;6060819;23;86243;-84
2023/09/26 03:56:01;;;;;;;2.15;1.52;;;22.90;57.40;;;;;;6039879;23;88400;-84
2023/09/26 03:58:27;;;;;;;1.65;1.23;;;23.00;57.40;;;;;;6040280;23;86944;-87
2023/09/26 04:00:52;;;;;;;2.15;1.40;;;22.90;57.30;;;;;;6041187;23;85659;-84
2023/09/26 04:03:20;;;;;;;1.85;1.10;;;22.90;57.30;;;;;;6038462;23;85809;-83
2023/09/26 04:05:48;;;;;;;2.97;1.23;;;22.90;57.40;;;;;;6039753;23;86841;-84
2023/09/26 04:08:17;;;;;;;1.25;1.15;;;22.90;57.30;;;;;;6062753;23;87841;-84
2023/09/26 04:10:42;;;;;;;1.92;1.25;;;22.90;57.30;;;;;;6040796;23;85923;-86
2023/09/26 04:13:08;;;;;;;1.95;1.13;;;22.90;57.30;;;;;;6039861;23;86213;-84
2023/09/26 04:15:38;;;;;;;0.90;0.90;;;22.90;57.30;;;;;;6039397;23;86668;-83
2023/09/26 04:18:05;;;;;;;1.50;1.00;;;22.90;57.30;;;;;;6038798;23;86807;-87
2023/09/26 04:20:30;;;;;;;1.55;1.33;;;22.90;57.30;;;;;;6039587;23;85709;-85
2023/09/26 04:22:56;;;;;;;2.72;1.10;;;22.90;57.30;;;;;;6062065;23;87184;-87
2023/09/26 04:25:22;;;;;;;1.80;1.10;;;22.90;57.30;;;;;;6039114;23;86956;-86
2023/09/26 04:27:47;;;;;;;1.55;1.38;;;22.90;57.30;;;;;;6041118;23;89263;-85
2023/09/26 04:30:13;;;;;;;1.65;1.20;;;22.90;57.40;;;;;;6062978;23;87032;-85
2023/09/26 04:32:39;;;;;;;1.30;1.20;;;22.80;57.30;;;;;;6038715;23;85840;-87
2023/09/26 04:35:06;;;;;;;1.80;1.15;;;22.80;57.30;;;;;;6039748;23;87242;-87
2023/09/26 04:37:31;;;;;;;1.20;1.10;;;22.90;57.30;;;;;;6039395;23;87749;-85
2023/09/26 04:39:57;;;;;;;1.35;1.13;;;22.80;57.30;;;;;;6041391;23;86171;-85
2023/09/26 04:42:24;;;;;;;1.35;1.10;;;22.80;57.30;;;;;;6039495;23;86314;-84
2023/09/26 04:44:49;;;;;;;2.03;1.20;;;22.90;57.30;;;;;;6039152;23;86836;-84
2023/09/26 04:47:15;;;;;;;1.52;1.20;;;22.80;57.30;;;;;;6039993;23;86877;-85
2023/09/26 04:49:43;;;;;;;1.20;0.88;;;22.90;57.40;;;;;;6039645;23;86087;-87
2023/09/26 04:52:09;;;;;;;1.02;0.95;;;22.80;57.30;;;;;;6041266;23;85784;-85
2023/09/26 04:54:35;;;;;;;2.08;1.30;;;22.90;57.30;;;;;;6039916;23;86968;-86
2023/09/26 04:57:00;;;;;;;2.30;1.23;;;22.80;57.30;;;;;;6036776;23;88331;-85
2023/09/26 04:59:27;;;;;;;1.35;1.00;;;22.80;57.30;;;;;;6039882;23;86347;-84
2023/09/26 05:01:54;;;;;;;2.80;1.23;;;22.80;57.30;;;;;;6061521;23;86759;-84
2023/09/26 05:04:20;;;;;;;1.42;1.10;;;22.80;57.30;;;;;;6060720;23;87959;-85
2023/09/26 05:06:47;;;;;;;1.40;1.20;;;22.80;57.30;;;;;;6062262;23;86170;-84
2023/09/26 05:09:13;;;;;;;1.90;1.23;;;22.80;57.30;;;;;;6033540;23;86182;-85
2023/09/26 05:11:39;;;;;;;2.25;1.42;;;22.80;57.20;;;;;;6035170;23;85584;-82
2023/09/26 05:14:04;;;;;;;2.10;1.20;;;22.80;57.20;;;;;;6057082;23;90176;-84
2023/09/26 05:16:30;;;;;;;2.15;0.90;;;22.80;57.10;;;;;;6061762;23;87905;-84
2023/09/26 05:18:56;;;;;;;1.50;1.20;;;22.80;57.40;;;;;;6036163;23;86026;-84
2023/09/26 05:21:21;;;;;;;2.20;1.40;;;22.80;57.60;;;;;;6031335;23;86497;-83
2023/09/26 05:23:47;;;;;;;1.50;1.40;;;22.80;57.90;;;;;;6034658;23;86129;-83
2023/09/26 05:26:13;;;;;;;2.20;1.50;;;22.80;57.70;;;;;;6034105;23;86242;-82
2023/09/26 05:28:40;;;;;;;1.42;1.30;;;22.80;57.90;;;;;;6034065;23;85934;-83
2023/09/26 05:31:06;;;;;;;3.05;0.98;;;22.80;57.90;;;;;;6057422;23;86112;-85
2023/09/26 05:33:33;;;;;;;3.55;1.45;;;22.80;58.10;;;;;;6033538;23;89261;-84
2023/09/26 05:35:59;;;;;;;2.58;1.35;;;22.80;57.90;;;;;;6032292;23;86044;-83
2023/09/26 05:38:28;;;;;;;1.80;1.20;;;22.80;58.00;;;;;;6032240;23;86019;-84
2023/09/26 05:40:57;;;;;;;1.70;1.10;;;22.80;58.00;;;;;;6034621;23;86058;-81
2023/09/26 05:43:22;;;;;;;1.63;1.27;;;22.80;57.90;;;;;;6032418;23;89410;-83
2023/09/26 05:45:51;;;;;;;1.50;1.27;;;22.80;58.00;;;;;;6034898;23;89073;-84
2023/09/26 05:48:18;;;;;;;1.25;1.10;;;22.80;58.00;;;;;;6036525;23;86166;-81
2023/09/26 05:50:44;;;;;;;2.60;1.50;;;22.80;57.90;;;;;;6058048;23;86405;-81
2023/09/26 05:53:09;;;;;;;2.75;1.52;;;22.80;58.00;;;;;;6035781;23;88051;-82
2023/09/26 05:55:35;;;;;;;2.15;1.40;;;22.80;58.00;;;;;;6033157;23;88497;-82
2023/09/26 05:58:01;;;;;;;2.33;1.60;;;22.80;57.90;;;;;;6037327;23;86043;-84
2023/09/26 06:00:27;;;;;;;1.58;1.20;;;22.80;57.90;;;;;;6034264;23;86055;-80
2023/09/26 06:02:54;;;;;;;1.90;1.48;;;22.80;57.80;;;;;;6057662;23;88366;-81
2023/09/26 06:05:22;;;;;;;1.77;1.40;;;22.80;57.90;;;;;;6055289;23;89947;-82
2023/09/26 06:07:49;;;;;;;2.95;1.38;;;22.80;56.80;;;;;;6034263;23;86232;-82
2023/09/26 06:10:15;;;;;;;2.20;1.38;;;22.70;56.50;;;;;;6058179;23;86707;-86
2023/09/26 06:12:41;;;;;;;2.03;1.40;;;22.80;57.50;;;;;;6033060;23;86466;-85
2023/09/26 06:15:09;;;;;;;2.53;1.60;;;22.80;57.80;;;;;;6036921;23;86355;-86
2023/09/26 06:17:39;;;;;;;4.03;1.45;;;22.80;57.90;;;;;;6063289;23;85652;-85
2023/09/26 06:20:09;;;;;;;1.92;1.10;;;22.70;58.20;;;;;;6037023;23;85951;-84
2023/09/26 06:22:35;;;;;;;2.35;1.42;;;22.70;58.20;;;;;;6060150;23;86675;-88
2023/09/26 06:25:02;;;;;;;2.88;1.20;;;22.70;58.20;;;;;;6038441;23;88040;-86
2023/09/26 06:27:28;;;;;;;1.92;1.10;;;22.80;58.20;;;;;;6041915;23;85934;-88
2023/09/26 06:29:53;;;;;;;2.58;1.45;;;22.80;58.30;;;;;;6041498;23;86496;-87
2023/09/26 06:32:21;;;;;;;1.65;1.20;;;22.80;57.90;;;;;;6040646;23;88544;-87
2023/09/26 06:34:47;;;;;;;1.48;1.30;;;22.80;57.30;;;;;;6035990;23;85947;-84
2023/09/26 06:37:13;;;;;;;2.72;1.83;;;22.80;57.20;;;;;;6036162;23;86205;-86
2023/09/26 06:39:40;;;;;;;4.70;1.52;;;22.80;57.30;;;;;;6033319;23;86105;-89
2023/09/26 06:42:06;;;;;;;2.45;1.30;;;22.80;56.70;;;;;;6054554;23;88906;-82
2023/09/26 06:44:31;;;;;;;3.40;1.65;;;22.80;56.80;;;;;;6031122;23;86428;-81
2023/09/26 06:46:57;;;;;;;2.80;1.65;;;22.80;57.60;;;;;;6029630;23;86271;-84
2023/09/26 06:49:23;;;;;;;2.92;1.52;;;22.90;58.10;;;;;;6033581;23;85937;-82
2023/09/26 06:51:48;;;;;;;3.05;1.75;;;22.90;58.10;;;;;;6031583;23;87530;-84
2023/09/26 06:54:14;;;;;;;4.05;1.60;;;22.90;58.10;;;;;;6030329;23;87123;-82
2023/09/26 06:56:40;;;;;;;4.93;1.88;;;22.90;58.10;;;;;;6032508;23;85888;-83
2023/09/26 06:59:06;;;;;;;2.15;1.20;;;22.90;58.20;;;;;;6030422;23;86167;-82
2023/09/26 07:01:31;;;;;;;2.22;1.60;;;23.00;58.30;;;;;;6033478;23;86828;-82
2023/09/26 07:03:57;;;;;;;2.28;1.30;;;23.00;58.40;;;;;;6034554;23;86661;-82
2023/09/26 07:06:23;;;;;;;1.88;1.30;;;23.00;58.50;;;;;;6031512;23;86308;-81
2023/09/26 07:08:48;;;;;;;3.53;1.60;;;23.00;58.40;;;;;;6034642;23;86516;-83
2023/09/26 07:11:14;;;;;;;2.40;1.35;;;23.00;58.40;;;;;;6035541;23;86464;-85
2023/09/26 07:13:40;;;;;;;3.17;1.60;;;23.00;58.40;;;;;;6036016;23;86730;-86
2023/09/26 07:16:07;;;;;;;1.95;1.17;;;23.00;58.60;;;;;;6060580;23;85660;-83
2023/09/26 07:18:34;;;;;;;2.58;1.60;;;23.00;58.70;;;;;;6035816;23;86368;-88
2023/09/26 07:21:04;;;;;;;3.00;1.90;;;23.00;58.50;;;;;;6036344;23;87533;-85
2023/09/26 07:23:29;;;;;;;2.30;1.60;;;23.00;58.40;;;;;;6036811;23;86543;-85
2023/09/26 07:26:13;;;;;;;5.40;1.60;;;23.00;58.60;;;;;;6033567;23;86073;-85
2023/09/26 07:28:46;;;;;;;2.03;1.30;;;23.00;58.60;;;;;;6031629;23;86014;-84
2023/09/26 07:31:14;;;;;;;1.98;1.30;;;23.00;58.50;;;;;;6032336;23;86338;-86
2023/09/26 07:33:40;;;;;;;1.83;1.38;;;23.10;58.60;;;;;;6032995;23;86394;-83
2023/09/26 07:36:07;;;;;;;3.60;1.90;;;23.10;58.70;;;;;;6033283;23;86007;-85
2023/09/26 07:38:33;;;;;;;4.60;2.25;;;23.10;58.70;;;;;;6030230;23;86155;-89
2023/09/26 07:40:59;;;;;;;3.70;1.40;;;23.10;58.70;;;;;;6032693;23;87698;-89
2023/09/26 07:43:29;;;;;;;2.95;1.20;;;23.10;58.50;;;;;;6033622;23;87390;-85
2023/09/26 07:46:12;;;;;;;2.83;1.60;;;23.10;58.60;;;;;;6036342;23;86012;-85
2023/09/26 07:48:38;;;;;;;3.13;1.83;;;23.10;58.60;;;;;;6034810;23;85973;-88
2023/09/26 07:51:10;;;;;;;3.78;1.10;;;23.20;58.70;;;;;;6033042;23;86774;-84
2023/09/26 07:53:37;;;;;;;3.17;1.60;;;23.20;58.70;;;;;;6031605;23;88837;-85
2023/09/26 07:56:03;;;;;;;2.30;1.40;;;23.20;58.60;;;;;;6034754;23;86015;-84
2023/09/26 07:58:29;;;;;;;3.42;1.63;;;23.20;58.50;;;;;;6034643;23;85896;-86
2023/09/26 08:00:58;;;;;;;2.45;1.40;;;23.20;58.60;;;;;;6036969;23;86538;-87
2023/09/26 08:03:24;;;;;;;2.92;1.65;;;23.20;58.60;;;;;;6036392;23;89136;-83
2023/09/26 08:06:00;;;;;;;3.38;1.63;;;23.20;58.40;;;;;;6037920;23;86053;-83
2023/09/26 08:08:26;;;;;;;2.08;1.45;;;23.20;58.30;;;;;;6037782;23;86259;-86
2023/09/26 08:10:51;;;;;;;3.85;1.55;;;23.30;58.20;;;;;;6038537;23;87630;-85
2023/09/26 08:13:17;;;;;;;6.63;1.77;;;23.30;58.10;;;;;;6034811;23;88170;-84
2023/09/26 08:15:43;;;;;;;5.90;1.35;;;23.30;58.30;;;;;;6068082;23;85943;-85
2023/09/26 08:18:50;;;;;;;2.50;1.45;;;23.30;58.40;;;;;;6049329;23;85474;-84
2023/09/26 08:21:16;;;;;;;5.53;1.60;;;23.30;58.30;;;;;;6064007;23;87971;-85
2023/09/26 08:23:42;;;;;;;3.22;1.65;;;23.30;58.30;;;;;;6044819;23;88506;-86
2023/09/26 08:26:12;;;;;;;4.75;1.40;;;23.30;58.40;;;;;;6045169;23;85939;-86
2023/09/26 08:28:38;;;;;;;3.28;1.30;;;23.30;58.10;;;;;;6058838;23;85734;-90
2023/09/26 08:31:15;;;;;;;5.72;2.25;;;23.30;57.80;;;;;;6037006;23;87382;-87
2023/09/26 08:33:44;;;;;;;4.07;1.80;;;23.40;55.90;;;;;;6036606;23;94111;-91
2023/09/26 08:36:17;;;;;;;2.70;1.83;;;23.30;56.70;;;;;;6019961;23;86213;-88
2023/09/26 08:38:47;;;;;;;3.72;1.98;;;23.40;57.40;;;;;;6032437;23;85954;-89
2023/09/26 08:41:16;;;;;;;4.90;2.47;;;23.40;57.30;;;;;;6029326;23;88867;-89
2023/09/26 08:43:42;;;;;;;11.77;3.22;;;23.40;57.30;;;;;;6030025;23;89662;-87
2023/09/26 08:46:08;;;;;;;8.20;2.47;;;23.40;57.40;;;;;;6033117;23;86136;-90
2023/09/26 08:48:34;;;;;;;12.52;3.03;;;23.40;57.50;;;;;;6034093;23;86181;-88
2023/09/26 08:51:01;;;;;;;7.57;2.70;;;23.40;57.60;;;;;;6034638;23;86989;-90
2023/09/26 08:53:26;;;;;;;12.57;3.47;;;23.40;57.60;;;;;;6033518;23;88014;-89
2023/09/26 08:55:52;;;;;;;15.52;3.45;;;23.40;57.60;;;;;;6032902;23;86299;-89
2023/09/26 08:58:20;;;;;;;14.82;3.78;;;23.40;57.60;;;;;;6033398;23;85753;-90
2023/09/26 09:00:49;;;;;;;11.60;3.50;;;23.40;58.50;;;;;;6035147;23;87810;-88
2023/09/26 09:03:15;;;;;;;11.75;2.92;;;23.40;57.70;;;;;;6033494;23;86989;-88
2023/09/26 09:05:44;;;;;;;13.63;4.05;;;23.40;57.70;;;;;;6032406;23;86161;-84
2023/09/26 09:08:29;;;;;;;12.82;3.38;;;23.40;57.90;;;;;;6030787;23;85620;-87
2023/09/26 09:10:55;;;;;;;8.30;3.28;;;23.40;57.90;;;;;;6032185;23;87741;-87
2023/09/26 09:13:30;;;;;;;14.32;4.25;;;23.40;58.10;;;;;;6032206;23;88433;-87
2023/09/26 09:16:10;;;;;;;15.93;3.90;;;23.40;58.10;;;;;;6033703;23;86052;-86
2023/09/26 09:18:50;;;;;;;10.80;3.47;;;23.40;57.90;;;;;;6034453;23;86337;-87
2023/09/26 09:21:31;;;;;;;13.52;4.00;;;23.40;57.90;;;;;;6037181;23;88092;-88
2023/09/26 09:24:00;;;;;;;13.73;4.10;;;23.50;58.00;;;;;;6026742;23;90126;-90
2023/09/26 09:26:30;;;;;;;11.18;3.90;;;23.50;58.00;;;;;;6062884;23;86230;-91
2023/09/26 09:28:59;;;;;;;8.95;2.75;;;23.50;57.90;;;;;;6037194;23;86127;-88
2023/09/26 09:31:26;;;;;;;13.70;4.30;;;23.50;56.60;;;;;;6036879;23;88690;-91
2023/09/26 09:33:52;;;;;;;7.38;3.10;;;23.50;56.70;;;;;;6035970;23;86933;-86
2023/09/26 09:36:19;;;;;;;9.32;3.20;;;23.50;56.20;;;;;;6035690;23;86071;-86
2023/09/26 09:38:45;;;;;;;9.55;3.08;;;23.50;56.10;;;;;;6054425;23;85856;-85
2023/09/26 09:41:10;;;;;;;8.27;3.00;;;23.50;55.80;;;;;;6032442;23;89061;-87
2023/09/26 09:43:38;;;;;;;11.05;2.92;;;23.50;56.00;;;;;;6034359;23;86994;-90
2023/09/26 09:46:08;;;;;;;10.45;2.53;;;23.50;56.00;;;;;;6036300;23;85920;-87
2023/09/26 09:48:44;;;;;;;9.00;2.78;;;23.50;56.10;;;;;;6032642;23;86400;-84
2023/09/26 09:51:19;;;;;;;6.55;2.90;;;23.50;56.00;;;;;;6028728;23;90326;-83
2023/09/26 09:53:53;;;;;;;9.65;3.42;;;23.50;56.10;;;;;;6029728;23;87319;-87
2023/09/26 09:56:24;;;;;;;4.78;2.60;;;23.50;56.20;;;;;;6051783;23;87067;-85
2023/09/26 09:58:51;;;;;;;5.50;2.63;;;23.40;56.10;;;;;;6026789;23;86533;-81
2023/09/26 10:01:21;;;;;;;6.07;2.83;;;23.50;55.90;;;;;;6028371;23;87584;-83
2023/09/26 10:03:50;;;;;;;7.45;2.53;;;23.50;55.80;;;;;;6028978;23;87330;-82
2023/09/26 10:06:20;;;;;;;8.63;2.63;;;23.50;56.20;;;;;;6030596;23;85665;-83
2023/09/26 10:08:48;;;;;;;4.65;2.53;;;23.50;55.90;;;;;;6030695;23;86760;-85
2023/09/26 10:11:14;;;;;;;5.70;2.67;;;23.50;55.90;;;;;;6029105;23;88868;-84
2023/09/26 10:13:40;;;;;;;7.97;2.38;;;23.50;56.00;;;;;;6028837;23;87969;-84
2023/09/26 10:16:11;;;;;;;7.63;2.25;;;23.50;55.80;;;;;;6031816;23;86030;-84
2023/09/26 10:18:39;;;;;;;4.45;2.20;;;23.50;56.00;;;;;;6030006;23;85825;-83
2023/09/26 10:21:21;;;;;;;6.60;2.83;;;23.50;55.60;;;;;;6029665;23;88568;-84
2023/09/26 10:24:05;;;;;;;4.55;2.17;;;23.50;55.80;;;;;;6051201;23;88852;-84
2023/09/26 10:26:32;;;;;;;5.78;3.00;;;23.50;55.50;;;;;;6030335;23;88155;-84
2023/09/26 10:29:25;;;;;;;3.25;2.17;;;23.50;55.50;;;;;;6027723;23;86277;-86
2023/09/26 10:32:04;;;;;;;3.20;2.10;;;23.50;55.60;;;;;;6029958;23;87437;-86
2023/09/26 10:34:36;;;;;;;5.13;2.45;;;23.50;55.30;;;;;;6029357;23;87046;-85
2023/09/26 10:37:06;;;;;;;4.55;2.30;;;23.50;55.20;;;;;;6031954;23;86526;-86
2023/09/26 10:39:33;;;;;;;4.45;1.98;;;23.50;55.30;;;;;;6029011;23;86243;-85
2023/09/26 10:42:09;;;;;;;4.18;2.35;;;23.50;55.30;;;;;;6030989;23;86434;-85
2023/09/26 10:44:36;;;;;;;3.70;1.90;;;23.50;55.10;;;;;;6053225;23;87818;-87
2023/09/26 10:47:04;;;;;;;4.80;2.70;;;23.50;55.10;;;;;;6031698;23;86325;-85
2023/09/26 10:49:34;;;;;;;4.15;2.33;;;23.50;55.10;;;;;;6030380;23;85854;-84
2023/09/26 10:52:03;;;;;;;4.95;1.95;;;23.50;55.00;;;;;;6028419;23;86341;-84
2023/09/26 10:54:34;;;;;;;3.60;1.95;;;23.50;55.00;;;;;;6027665;23;87172;-86
2023/09/26 10:57:00;;;;;;;3.17;2.22;;;23.50;55.00;;;;;;6032357;23;86181;-84
2023/09/26 10:59:30;;;;;;;2.67;1.80;;;23.50;54.90;;;;;;6029609;23;86027;-86
2023/09/26 11:01:57;;;;;;;3.40;2.08;;;23.50;54.70;;;;;;6030098;23;89785;-86
2023/09/26 11:04:31;;;;;;;3.33;1.90;;;23.50;55.10;;;;;;6027840;23;86426;-83
2023/09/26 11:06:59;;;;;;;5.20;2.40;;;23.50;55.00;;;;;;6029573;23;86598;-87
2023/09/26 11:09:25;;;;;;;5.85;2.22;;;23.50;55.10;;;;;;6030934;23;86010;-85
2023/09/26 11:11:55;;;;;;;5.90;2.15;;;23.50;55.20;;;;;;6030014;23;87126;-84
2023/09/26 11:14:20;;;;;;;;;;;23.50;55.80;;;;;;6029188;23;86813;-83
2023/09/26 11:16:46;;;;;;;4.90;1.83;;;23.50;55.20;;;;;;6032244;23;86207;-84
2023/09/26 11:19:12;;;;;;;3.47;1.95;;;23.50;55.40;;;;;;6027422;23;86213;-88
2023/09/26 11:21:38;;;;;;;4.15;1.98;;;23.50;55.30;;;;;;6028179;23;90853;-86
2023/09/26 11:24:24;;;;;;;3.03;1.48;;;23.50;54.90;;;;;;6027299;23;88623;-83
2023/09/26 11:26:52;;;;;;;4.18;1.98;;;23.50;54.90;;;;;;6029381;23;85846;-86
2023/09/26 11:29:21;;;;;;;3.45;1.73;;;23.50;55.00;;;;;;6026608;23;85968;-84
2023/09/26 11:31:47;;;;;;;3.58;1.92;;;23.50;55.20;;;;;;6028849;23;87994;-84
2023/09/26 11:34:17;;;;;;;2.83;1.77;;;23.50;54.90;;;;;;6027120;23;88043;-86
2023/09/26 11:36:50;;;;;;;4.72;2.10;;;23.50;54.90;;;;;;6030913;23;86101;-86
2023/09/26 11:39:21;;;;;;;15.65;6.13;;;23.50;54.80;;;;;;6026887;23;86296;-85
2023/09/26 11:42:03;;;;;;;17.73;6.10;;;23.50;55.00;;;;;;6030103;23;87395;-86
2023/09/26 11:44:36;;;;;;;20.77;6.50;;;23.50;55.60;;;;;;6053366;23;88058;-86
2023/09/26 11:47:04;;;;;;;18.90;5.85;;;23.50;55.20;;;;;;6029409;23;86198;-85
2023/09/26 11:49:30;;;;;;;15.10;5.90;;;23.50;55.30;;;;;;6030349;23;86816;-88
2023/09/26 11:51:56;;;;;;;9.27;4.78;;;23.50;55.30;;;;;;6033081;23;87432;-83
2023/09/26 11:54:22;;;;;;;12.63;4.13;;;23.50;55.30;;;;;;6032529;23;86018;-85
2023/09/26 11:56:48;;;;;;;12.68;4.85;;;23.50;55.10;;;;;;6032838;23;86152;-87
2023/09/26 11:59:15;;;;;;;9.52;4.18;;;23.50;54.90;;;;;;6031437;23;86126;-85
2023/09/26 12:01:41;;;;;;;10.95;4.57;;;23.60;54.80;;;;;;6031375;23;87280;-86
2023/09/26 12:04:11;;;;;;;10.43;4.07;;;23.50;54.60;;;;;;6030643;23;88613;-87
2023/09/26 12:06:40;;;;;;;10.43;3.78;;;23.60;54.80;;;;;;6029873;23;89227;-84
2023/09/26 12:09:19;;;;;;;11.43;4.53;;;23.50;54.80;;;;;;6030462;23;86077;-83
2023/09/26 12:11:49;;;;;;;;;;;23.50;55.10;;;;;;6029743;23;89948;-85
2023/09/26 12:14:16;;;;;;;11.05;3.78;;;23.50;54.90;;;;;;6029442;23;90512;-85
2023/09/26 12:16:43;;;;;;;7.38;2.85;;;23.50;54.60;;;;;;6026669;23;86089;-83
2023/09/26 12:19:10;;;;;;;8.35;3.53;;;23.50;54.60;;;;;;6031436;23;86603;-85
2023/09/26 12:21:35;;;;;;;11.50;3.20;;;23.50;54.50;;;;;;6031056;23;89466;-86
2023/09/26 12:24:01;;;;;;;11.88;3.90;;;23.50;54.70;;;;;;6029540;23;90063;-87
2023/09/26 12:26:28;;;;;;;8.90;3.53;;;23.50;55.10;;;;;;6035188;23;86456;-86
2023/09/26 12:28:53;;;;;;;5.47;2.95;;;23.50;55.30;;;;;;6033334;23;86762;-87
2023/09/26 12:31:19;;;;;;;7.70;3.22;;;23.60;55.10;;;;;;6033371;23;87399;-88
2023/09/26 12:33:45;;;;;;;6.88;3.03;;;23.60;55.40;;;;;;6034359;23;86414;-88
2023/09/26 12:36:18;;;;;;;18.23;3.70;;;23.60;59.40;;;;;;6031563;23;86375;-85
2023/09/26 12:38:44;;;;;;;7.63;3.67;;;23.60;61.30;;;;;;6028925;23;87291;-85
2023/09/26 12:41:10;;;;;;;6.72;3.03;;;23.60;64.40;;;;;;6053326;23;90369;-87
2023/09/26 12:43:36;;;;;;;6.88;3.28;;;23.60;66.20;;;;;;6027725;23;89698;-86
2023/09/26 12:46:01;;;;;;;8.30;3.72;;;23.60;64.50;;;;;;6030732;23;86856;-84
2023/09/26 12:48:27;;;;;;;6.90;2.92;;;23.60;61.30;;;;;;6030065;23;85718;-83